createdAt,value
2019-03-23T00:02:23.887Z,28.83
2019-03-23T00:04:54.023Z,17.50
2019-03-23T00:07:23.932Z,19.03
2019-03-23T00:09:53.965Z,21.60
2019-03-23T00:12:23.951Z,26.33
2019-03-23T00:14:53.989Z,13.40
2019-03-23T00:17:24.015Z,9.77
2019-03-23T00:19:53.949Z,11.63
2019-03-23T00:22:23.964Z,10.67
2019-03-23T00:24:54.077Z,13.20
2019-03-23T00:27:24.081Z,7.57
2019-03-23T00:29:53.989Z,12.20
2019-03-23T00:32:24.301Z,27.03
2019-03-23T00:34:54.360Z,12.77
2019-03-23T00:37:24.298Z,15.57
2019-03-23T00:39:54.918Z,16.50
2019-03-23T00:42:24.802Z,18.23
2019-03-23T00:44:54.842Z,19.90
2019-03-23T00:47:24.823Z,9.70
2019-03-23T00:49:54.884Z,16.20
2019-03-23T00:52:24.775Z,13.07
2019-03-23T00:54:54.901Z,19.00
2019-03-23T00:57:24.898Z,11.33
2019-03-23T00:59:54.983Z,16.23
2019-03-23T01:02:25.033Z,16.40
2019-03-23T01:04:54.955Z,20.10
2019-03-23T01:07:25.058Z,32.33
2019-03-23T01:09:55.109Z,21.97
2019-03-23T01:12:25.114Z,14.10
2019-03-23T01:14:55.133Z,17.20
2019-03-23T01:17:25.233Z,23.37
2019-03-23T01:19:55.141Z,26.97
2019-03-23T01:22:25.297Z,13.77
2019-03-23T01:24:55.285Z,20.53
2019-03-23T01:27:25.578Z,21.17
2019-03-23T01:29:55.467Z,25.23
2019-03-23T01:32:25.574Z,18.53
2019-03-23T01:34:55.666Z,15.47
2019-03-23T01:37:25.679Z,23.50
2019-03-23T01:39:55.698Z,16.80
2019-03-23T01:42:25.713Z,14.77
2019-03-23T01:44:55.856Z,10.33
2019-03-23T01:47:25.857Z,13.30
2019-03-23T01:49:55.800Z,15.90
2019-03-23T01:52:25.737Z,19.00
2019-03-23T01:54:56.156Z,24.37
2019-03-23T01:57:26.089Z,15.30
2019-03-23T01:59:55.980Z,17.27
2019-03-23T02:02:25.953Z,21.33
2019-03-23T02:04:55.875Z,22.47
2019-03-23T02:07:25.832Z,12.30
2019-03-23T02:09:56.013Z,15.67
2019-03-23T02:12:25.967Z,14.47
2019-03-23T02:14:55.886Z,22.90
2019-03-23T02:17:26.304Z,21.30
2019-03-23T02:19:56.337Z,17.80
2019-03-23T02:22:26.334Z,14.63
2019-03-23T02:24:56.399Z,19.30
2019-03-23T02:27:26.456Z,27.17
2019-03-23T02:29:56.396Z,25.93
2019-03-23T02:32:26.521Z,40.03
2019-03-23T02:34:56.671Z,67.27
2019-03-23T02:37:27.935Z,73.83
2019-03-23T02:39:58.419Z,30.87
2019-03-23T02:42:28.501Z,12.03
2019-03-23T02:44:58.645Z,11.20
2019-03-23T02:47:28.988Z,14.70
2019-03-23T02:49:59.002Z,21.60
2019-03-23T02:52:28.998Z,46.53
2019-03-23T02:54:59.014Z,26.23
2019-03-23T02:57:29.054Z,17.37
2019-03-23T02:59:59.072Z,11.97
2019-03-23T03:02:29.127Z,10.93
2019-03-23T03:04:59.274Z,10.30
2019-03-23T03:07:41.175Z,10.47
2019-03-23T03:10:01.054Z,12.63
2019-03-23T03:12:31.114Z,5.97
2019-03-23T03:15:01.391Z,11.53
2019-03-23T03:17:31.335Z,12.03
2019-03-23T03:20:01.249Z,27.90
2019-03-23T03:22:31.241Z,23.60
2019-03-23T03:25:01.290Z,18.33
2019-03-23T03:27:31.294Z,34.37
2019-03-23T03:30:01.336Z,48.10
2019-03-23T03:32:31.433Z,39.40
2019-03-23T03:35:01.698Z,17.73
2019-03-23T03:37:31.658Z,24.20
2019-03-23T03:40:01.601Z,49.40
2019-03-23T03:42:31.636Z,45.23
2019-03-23T03:45:01.569Z,48.57
2019-03-23T03:47:31.550Z,30.30
2019-03-23T03:50:01.667Z,17.23
2019-03-23T03:52:32.132Z,8.20
2019-03-23T03:55:02.124Z,13.27
2019-03-23T03:57:32.186Z,28.67
2019-03-23T04:00:02.174Z,12.07
2019-03-23T04:02:32.253Z,20.57
2019-03-23T04:05:02.207Z,15.67
2019-03-23T04:07:32.132Z,13.70
2019-03-23T04:10:02.133Z,14.80
2019-03-23T04:12:32.118Z,37.97
2019-03-23T04:15:02.071Z,11.10
2019-03-23T04:17:32.043Z,12.90
2019-03-23T04:20:02.004Z,11.50
2019-03-23T04:22:32.015Z,14.03
2019-03-23T04:25:02.065Z,10.70
2019-03-23T04:27:31.947Z,6.63
2019-03-23T04:30:03.491Z,5.30
2019-03-23T04:32:33.435Z,9.60
2019-03-23T04:35:03.710Z,5.80
2019-03-23T04:37:33.820Z,8.00
2019-03-23T04:40:04.053Z,17.03
2019-03-23T04:42:34.262Z,12.10
2019-03-23T04:45:04.595Z,16.13
2019-03-23T04:47:34.600Z,9.53
2019-03-23T04:50:04.803Z,5.80
2019-03-23T04:52:34.761Z,10.70
2019-03-23T04:55:05.663Z,8.60
2019-03-23T04:57:35.559Z,6.70
2019-03-23T05:00:06.556Z,10.50
2019-03-23T05:02:36.498Z,11.20
2019-03-23T05:05:07.151Z,21.50
2019-03-23T05:07:37.267Z,12.07
2019-03-23T05:10:07.721Z,10.00
2019-03-23T05:12:37.675Z,9.97
2019-03-23T05:15:08.281Z,18.13
2019-03-23T05:17:38.200Z,10.33
2019-03-23T05:20:08.628Z,12.00
2019-03-23T05:22:38.545Z,14.10
2019-03-23T05:25:10.445Z,13.63
2019-03-23T05:27:41.560Z,8.37
2019-03-23T05:30:11.902Z,10.67
2019-03-23T05:32:41.810Z,17.43
2019-03-23T05:35:12.034Z,26.13
2019-03-23T05:37:41.966Z,10.40
2019-03-23T05:40:11.975Z,17.03
2019-03-23T05:42:41.925Z,12.73
2019-03-23T05:45:12.337Z,15.13
2019-03-23T05:47:42.468Z,16.17
2019-03-23T05:50:12.741Z,17.77
2019-03-23T05:52:42.700Z,12.63
2019-03-23T05:55:13.081Z,14.87
2019-03-23T05:57:44.816Z,15.60
2019-03-23T06:00:17.771Z,12.07
2019-03-23T06:02:47.737Z,14.80
2019-03-23T06:05:17.875Z,22.57
2019-03-23T06:07:47.869Z,22.90
2019-03-23T06:10:18.234Z,18.53
2019-03-23T06:12:48.433Z,14.10
2019-03-23T06:15:18.473Z,22.50
2019-03-23T06:17:48.578Z,19.13
2019-03-23T06:20:18.685Z,13.10
2019-03-23T06:22:48.849Z,18.20
2019-03-23T06:25:18.766Z,16.77
2019-03-23T06:27:48.809Z,16.83
2019-03-23T06:30:18.853Z,20.03
2019-03-23T06:32:48.916Z,15.43
2019-03-23T06:35:19.014Z,15.70
2019-03-23T06:37:49.275Z,13.80
2019-03-23T06:40:19.252Z,22.53
2019-03-23T06:42:59.167Z,16.80
2019-03-23T06:45:21.009Z,17.27
2019-03-23T06:47:50.994Z,21.57
2019-03-23T06:50:21.155Z,14.23
2019-03-23T06:52:51.094Z,18.60
2019-03-23T06:55:21.344Z,19.37
2019-03-23T06:57:51.325Z,11.70
2019-03-23T07:00:21.287Z,21.67
2019-03-23T07:02:51.376Z,17.20
2019-03-23T07:05:21.334Z,13.20
2019-03-23T07:07:51.412Z,16.57
2019-03-23T07:10:21.408Z,23.30
2019-03-23T07:12:51.414Z,17.47
2019-03-23T07:15:21.360Z,19.30
2019-03-23T07:17:51.303Z,15.43
2019-03-23T07:20:21.231Z,15.47
2019-03-23T07:22:51.211Z,17.80
2019-03-23T07:25:21.344Z,35.30
2019-03-23T07:27:51.398Z,21.87
2019-03-23T07:30:21.454Z,20.27
2019-03-23T07:32:51.481Z,19.70
2019-03-23T07:35:21.441Z,19.77
2019-03-23T07:37:51.545Z,21.10
2019-03-23T07:40:21.802Z,24.10
2019-03-23T07:42:51.731Z,23.90
2019-03-23T07:45:21.685Z,23.03
2019-03-23T07:47:51.812Z,30.13
2019-03-23T07:50:21.829Z,24.20
2019-03-23T07:52:51.849Z,31.77
2019-03-23T07:55:21.947Z,31.97
2019-03-23T07:57:51.898Z,23.17
2019-03-23T08:00:22.276Z,26.47
2019-03-23T08:02:52.316Z,26.20
2019-03-23T08:05:22.312Z,23.77
2019-03-23T08:07:52.492Z,29.30
2019-03-23T08:10:32.740Z,28.73
2019-03-23T08:13:02.822Z,50.50
2019-03-23T08:15:32.955Z,35.23
2019-03-23T08:18:03.062Z,26.03
2019-03-23T08:20:33.108Z,37.67
2019-03-23T08:23:03.140Z,32.47
2019-03-23T08:25:33.110Z,35.53
2019-03-23T08:28:03.067Z,44.07
2019-03-23T08:30:33.068Z,32.53
2019-03-23T08:33:03.041Z,40.70
2019-03-23T08:35:32.994Z,33.03
2019-03-23T08:38:02.983Z,27.20
2019-03-23T08:40:32.940Z,29.90
2019-03-23T08:43:03.112Z,30.70
2019-03-23T08:45:33.236Z,41.73
2019-03-23T08:48:03.150Z,33.93
2019-03-23T08:50:33.407Z,41.53
2019-03-23T08:53:03.397Z,40.07
2019-03-23T08:55:33.412Z,40.40
2019-03-23T08:58:03.351Z,38.10
2019-03-23T09:00:33.462Z,49.53
2019-03-23T09:03:03.838Z,36.20
2019-03-23T09:05:34.123Z,36.00
2019-03-23T09:08:04.171Z,39.40
2019-03-23T09:10:34.161Z,43.17
2019-03-23T09:13:04.100Z,44.17
2019-03-23T09:15:34.106Z,43.60
2019-03-23T09:18:04.131Z,46.23
2019-03-23T09:20:34.151Z,46.43
2019-03-23T09:23:04.145Z,43.90
2019-03-23T09:25:34.063Z,48.23
2019-03-23T09:28:04.083Z,46.27
2019-03-23T09:30:34.218Z,39.17
2019-03-23T09:33:04.183Z,46.43
2019-03-23T09:35:34.208Z,38.83
2019-03-23T09:38:04.262Z,46.87
2019-03-23T09:40:34.368Z,54.10
2019-03-23T09:43:04.578Z,49.90
2019-03-23T09:45:34.745Z,40.93
2019-03-23T09:48:04.645Z,53.17
2019-03-23T09:50:34.583Z,39.50
2019-03-23T09:53:04.597Z,48.90
2019-03-23T09:55:34.631Z,46.53
2019-03-23T09:58:04.748Z,52.47
2019-03-23T10:00:34.828Z,44.33
2019-03-23T10:03:04.826Z,42.73
2019-03-23T10:05:34.831Z,47.00
2019-03-23T10:08:04.978Z,45.93
2019-03-23T10:10:34.968Z,41.40
2019-03-23T10:13:04.924Z,48.00
2019-03-23T10:15:34.892Z,49.20
2019-03-23T10:18:05.154Z,44.90
2019-03-23T10:20:35.160Z,42.40
2019-03-23T10:23:05.123Z,46.93
2019-03-23T10:25:35.966Z,52.80
2019-03-23T10:28:05.959Z,46.57
2019-03-23T10:30:35.953Z,42.87
2019-03-23T10:33:05.994Z,47.90
2019-03-23T10:35:35.973Z,46.20
2019-03-23T10:38:06.197Z,45.60
2019-03-23T10:40:36.266Z,41.10
2019-03-23T10:43:06.368Z,46.67
2019-03-23T10:45:44.055Z,48.57
2019-03-23T10:48:08.034Z,50.30
2019-03-23T10:50:38.311Z,47.00
2019-03-23T10:53:08.231Z,50.20
2019-03-23T10:55:38.172Z,45.43
2019-03-23T10:58:08.151Z,49.50
2019-03-23T11:00:38.059Z,44.73
2019-03-23T11:03:08.058Z,45.10
2019-03-23T11:05:38.045Z,53.63
2019-03-23T11:08:08.081Z,40.13
2019-03-23T11:10:41.921Z,42.37
2019-03-23T11:13:10.074Z,60.97
2019-03-23T11:15:39.987Z,46.70
2019-03-23T11:18:09.918Z,47.27
2019-03-23T11:20:39.890Z,53.17
2019-03-23T11:23:09.826Z,53.60
2019-03-23T11:25:40.043Z,56.13
2019-03-23T11:28:09.965Z,50.60
2019-03-23T11:30:40.171Z,59.67
2019-03-23T11:33:10.165Z,46.40
2019-03-23T11:35:40.089Z,61.67
2019-03-23T11:38:10.126Z,44.13
2019-03-23T11:40:40.321Z,51.43
2019-03-23T11:43:10.389Z,48.30
2019-03-23T11:45:40.658Z,47.17
2019-03-23T11:48:10.725Z,54.27
2019-03-23T11:50:40.703Z,40.40
2019-03-23T11:53:10.919Z,46.97
2019-03-23T11:55:41.035Z,52.10
2019-03-23T11:58:11.253Z,46.73
2019-03-23T12:00:41.307Z,48.80
2019-03-23T12:03:11.245Z,46.77
2019-03-23T12:05:41.190Z,53.30
2019-03-23T12:08:11.125Z,40.63
2019-03-23T12:10:41.247Z,49.43
2019-03-23T12:13:11.364Z,55.70
2019-03-23T12:15:41.425Z,58.10
2019-03-23T12:18:11.548Z,53.20
2019-03-23T12:20:41.645Z,50.47
2019-03-23T12:23:11.776Z,49.43
2019-03-23T12:25:41.851Z,45.60
2019-03-23T12:28:11.879Z,43.40
2019-03-23T12:30:41.913Z,45.80
2019-03-23T12:33:11.977Z,45.67
2019-03-23T12:35:41.962Z,51.30
2019-03-23T12:38:12.162Z,42.27
2019-03-23T12:40:42.401Z,48.60
2019-03-23T12:43:12.521Z,44.47
2019-03-23T12:45:42.572Z,47.77
2019-03-23T12:48:12.688Z,47.03
2019-03-23T12:50:42.708Z,49.70
2019-03-23T12:53:12.686Z,47.03
2019-03-23T12:55:42.876Z,53.43
2019-03-23T12:58:12.866Z,42.23
2019-03-23T13:00:42.929Z,48.43
2019-03-23T13:03:13.094Z,46.77
2019-03-23T13:05:43.115Z,42.23
2019-03-23T13:08:13.074Z,52.37
2019-03-23T13:10:43.077Z,47.50
2019-03-23T13:13:13.705Z,44.37
2019-03-23T13:15:43.613Z,42.27
2019-03-23T13:18:13.707Z,45.23
2019-03-23T13:20:43.923Z,43.87
2019-03-23T13:23:13.819Z,40.30
2019-03-23T13:25:44.081Z,40.90
2019-03-23T13:28:14.031Z,42.33
2019-03-23T13:30:44.044Z,46.33
2019-03-23T13:33:13.955Z,56.63
2019-03-23T13:35:44.154Z,46.43
2019-03-23T13:38:14.071Z,50.00
2019-03-23T13:40:44.146Z,85.00
2019-03-23T13:43:14.518Z,46.27
2019-03-23T13:45:44.618Z,46.20
2019-03-23T13:48:14.802Z,43.27
2019-03-23T13:50:44.740Z,54.83
2019-03-23T13:53:14.859Z,44.83
2019-03-23T13:55:44.983Z,46.60
2019-03-23T13:58:15.570Z,53.40
2019-03-23T14:00:45.623Z,44.67
2019-03-23T14:03:15.663Z,45.27
2019-03-23T14:05:45.838Z,50.47
2019-03-23T14:08:15.793Z,44.63
2019-03-23T14:10:46.089Z,45.47
2019-03-23T14:13:16.069Z,42.10
2019-03-23T14:15:45.978Z,40.33
2019-03-23T14:18:17.470Z,40.97
2019-03-23T14:20:47.867Z,46.17
2019-03-23T14:23:18.018Z,43.73
2019-03-23T14:25:48.070Z,48.93
2019-03-23T14:28:18.079Z,57.17
2019-03-23T14:30:48.213Z,51.07
2019-03-23T14:33:18.201Z,52.00
2019-03-23T14:35:48.143Z,51.07
2019-03-23T14:38:18.427Z,55.00
2019-03-23T14:40:48.473Z,43.53
2019-03-23T14:43:18.533Z,49.83
2019-03-23T14:45:48.505Z,50.80
2019-03-23T14:48:19.723Z,48.80
2019-03-23T14:51:06.221Z,59.83
2019-03-23T14:53:36.236Z,49.57
2019-03-23T14:56:06.229Z,48.30
2019-03-23T14:58:36.216Z,48.70
2019-03-23T15:01:06.248Z,51.93
2019-03-23T15:03:36.322Z,51.23
2019-03-23T15:06:06.385Z,48.77
2019-03-23T15:08:36.409Z,45.67
2019-03-23T15:11:06.419Z,51.50
2019-03-23T15:13:36.385Z,52.13
2019-03-23T15:16:06.372Z,50.03
2019-03-23T15:18:36.417Z,55.83
2019-03-23T15:21:06.374Z,48.87
2019-03-23T15:23:36.327Z,47.30
2019-03-23T15:26:06.323Z,47.53
2019-03-23T15:28:36.433Z,45.93
2019-03-23T15:31:06.972Z,46.37
2019-03-23T15:33:37.010Z,48.43
2019-03-23T15:36:07.165Z,38.73
2019-03-23T15:38:37.132Z,40.47
2019-03-23T15:41:07.378Z,42.60
2019-03-23T15:43:37.397Z,47.10
2019-03-23T15:46:07.454Z,40.50
2019-03-23T15:48:37.492Z,59.53
2019-03-23T15:51:07.616Z,43.80
2019-03-23T15:53:37.654Z,48.60
2019-03-23T15:56:07.885Z,43.03
2019-03-23T15:58:37.910Z,44.50
2019-03-23T16:01:07.906Z,44.73
2019-03-23T16:03:37.864Z,43.93
2019-03-23T16:06:07.917Z,46.73
2019-03-23T16:08:37.864Z,42.87
2019-03-23T16:11:07.939Z,45.23
2019-03-23T16:13:37.981Z,47.70
2019-03-23T16:16:07.965Z,45.87
2019-03-23T16:18:37.951Z,46.83
2019-03-23T16:21:07.921Z,49.87
2019-03-23T16:23:37.856Z,39.80
2019-03-23T16:26:07.952Z,43.73
2019-03-23T16:28:38.006Z,45.20
2019-03-23T16:31:08.004Z,39.17
2019-03-23T16:33:37.972Z,57.30
2019-03-23T16:36:07.920Z,44.27
2019-03-23T16:38:37.866Z,39.70
2019-03-23T16:41:07.938Z,47.57
2019-03-23T16:43:38.150Z,55.93
2019-03-23T16:46:08.213Z,49.33
2019-03-23T16:48:38.308Z,46.90
2019-03-23T16:51:08.351Z,45.30
2019-03-23T16:53:38.407Z,49.93
2019-03-23T16:56:08.544Z,44.00
2019-03-23T16:58:38.572Z,45.60
2019-03-23T17:01:08.821Z,44.93
2019-03-23T17:03:39.125Z,52.23
2019-03-23T17:06:09.281Z,48.47
2019-03-23T17:08:39.370Z,47.70
2019-03-23T17:11:09.563Z,50.80
2019-03-23T17:13:39.640Z,49.23
2019-03-23T17:16:09.708Z,50.23
2019-03-23T17:18:39.952Z,44.57
2019-03-23T17:21:10.222Z,45.47
2019-03-23T17:23:40.304Z,39.03
2019-03-23T17:26:10.224Z,47.93
2019-03-23T17:28:40.356Z,43.07
2019-03-23T17:31:10.266Z,47.47
2019-03-23T17:33:40.351Z,43.73
2019-03-23T17:36:10.516Z,45.00
2019-03-23T17:38:40.529Z,47.27
2019-03-23T17:41:10.630Z,44.40
2019-03-23T17:43:41.035Z,47.40
2019-03-23T17:46:10.915Z,48.00
2019-03-23T17:48:42.833Z,47.63
2019-03-23T17:51:12.982Z,49.03
2019-03-23T17:53:43.192Z,45.83
2019-03-23T17:56:13.230Z,55.27
2019-03-23T17:58:43.224Z,52.13
2019-03-23T18:01:19.562Z,47.73
2019-03-23T18:03:48.265Z,54.90
2019-03-23T18:06:18.386Z,48.40
2019-03-23T18:08:48.435Z,54.30
2019-03-23T18:11:18.408Z,55.70
2019-03-23T18:13:48.640Z,52.00
2019-03-23T18:16:18.676Z,57.13
2019-03-23T18:18:48.808Z,54.00
2019-03-23T18:21:18.931Z,49.50
2019-03-23T18:23:48.906Z,48.50
2019-03-23T18:26:18.822Z,45.63
2019-03-23T18:28:49.003Z,50.00
2019-03-23T18:31:19.000Z,44.90
2019-03-23T18:33:49.214Z,62.70
2019-03-23T18:36:19.269Z,50.63
2019-03-23T18:38:49.176Z,45.90
2019-03-23T18:41:19.253Z,51.00
2019-03-23T18:43:49.671Z,51.80
2019-03-23T18:46:19.582Z,44.83
2019-03-23T18:48:49.611Z,50.00
2019-03-23T18:51:19.651Z,51.20
2019-03-23T18:53:49.567Z,45.30
2019-03-23T18:56:19.655Z,61.20
2019-03-23T18:58:49.688Z,54.03
2019-03-23T19:01:19.711Z,69.90
2019-03-23T19:03:49.654Z,62.33
2019-03-23T19:06:19.763Z,55.00
2019-03-23T19:08:50.484Z,55.93
2019-03-23T19:11:20.469Z,47.03
2019-03-23T19:13:50.398Z,44.37
2019-03-23T19:16:20.453Z,49.20
2019-03-23T19:18:50.569Z,54.30
2019-03-23T19:21:20.683Z,53.70
2019-03-23T19:23:50.703Z,48.20
2019-03-23T19:26:20.948Z,50.27
2019-03-23T19:28:51.013Z,42.63
2019-03-23T19:31:21.072Z,45.27
2019-03-23T19:33:51.198Z,53.70
2019-03-23T19:36:21.191Z,44.27
2019-03-23T19:38:51.224Z,50.27
2019-03-23T19:41:21.436Z,40.13
2019-03-23T19:43:52.012Z,44.07
2019-03-23T19:46:22.242Z,42.30
2019-03-23T19:48:52.395Z,43.10
2019-03-23T19:51:22.452Z,42.20
2019-03-23T19:53:52.410Z,47.43
2019-03-23T19:56:22.386Z,43.70
2019-03-23T19:58:52.385Z,46.10
2019-03-23T20:01:22.664Z,43.50
2019-03-23T20:03:53.314Z,37.70
2019-03-23T20:06:23.214Z,42.67
2019-03-23T20:08:53.938Z,45.77
2019-03-23T20:11:23.979Z,52.23
2019-03-23T20:13:58.672Z,65.87
2019-03-23T20:16:26.283Z,49.43
2019-03-23T20:18:56.320Z,43.23
2019-03-23T20:21:26.776Z,47.00
2019-03-23T20:23:56.746Z,47.70
2019-03-23T20:26:26.898Z,49.63
2019-03-23T20:28:56.883Z,53.17
2019-03-23T20:31:27.118Z,44.87
2019-03-23T20:33:57.119Z,45.47
2019-03-23T20:36:27.192Z,53.63
2019-03-23T20:38:57.239Z,44.33
2019-03-23T20:41:27.578Z,55.30
2019-03-23T20:43:57.709Z,55.10
2019-03-23T20:46:27.850Z,41.30
2019-03-23T20:48:59.073Z,39.90
2019-03-23T20:51:29.527Z,29.07
2019-03-23T20:53:59.640Z,33.57
2019-03-23T20:56:29.590Z,38.20
2019-03-23T20:58:59.588Z,33.90
2019-03-23T21:01:29.513Z,38.53
2019-03-23T21:03:59.702Z,38.80
2019-03-23T21:06:29.764Z,37.03
2019-03-23T21:08:59.800Z,27.23
2019-03-23T21:11:29.949Z,51.70
2019-03-23T21:14:00.001Z,42.70
2019-03-23T21:16:30.195Z,58.27
2019-03-23T21:19:00.169Z,43.90
2019-03-23T21:21:32.428Z,37.73
2019-03-23T21:24:02.386Z,33.60
2019-03-23T21:26:32.712Z,44.67
2019-03-23T21:29:02.680Z,41.07
2019-03-23T21:31:34.215Z,32.07
2019-03-23T21:34:04.338Z,55.80
2019-03-23T21:36:34.532Z,43.07
2019-03-23T21:39:06.098Z,40.40
2019-03-23T21:41:36.413Z,39.43
2019-03-23T21:44:06.619Z,58.23
2019-03-23T21:46:36.765Z,53.70
2019-03-23T21:49:06.979Z,148.83
2019-03-23T21:51:37.050Z,59.97
2019-03-23T21:54:06.994Z,99.17
2019-03-23T21:56:37.085Z,89.23
2019-03-23T21:59:07.351Z,81.87
2019-03-23T22:01:37.786Z,86.23
2019-03-23T22:04:07.852Z,94.17
2019-03-23T22:06:37.832Z,84.93
2019-03-23T22:09:08.534Z,74.20
2019-03-23T22:11:38.563Z,65.60
2019-03-23T22:14:08.654Z,67.07
2019-03-23T22:16:38.672Z,62.70
2019-03-23T22:19:08.753Z,61.73
2019-03-23T22:21:38.855Z,61.23
2019-03-23T22:24:08.967Z,57.17
2019-03-23T22:26:38.915Z,63.77
2019-03-23T22:29:09.062Z,67.30
2019-03-23T22:31:39.237Z,70.30
2019-03-23T22:34:09.818Z,67.00
2019-03-23T22:36:39.771Z,70.83
2019-03-23T22:39:09.755Z,104.17
2019-03-23T22:41:39.762Z,80.77
2019-03-23T22:44:09.707Z,113.23
2019-03-23T22:46:39.847Z,97.57
2019-03-23T22:49:09.861Z,83.70
2019-03-23T22:51:40.263Z,88.80
2019-03-23T22:54:10.314Z,77.93
2019-03-23T22:56:40.330Z,59.50
2019-03-23T22:59:10.322Z,62.37
2019-03-23T23:01:40.637Z,53.47
2019-03-23T23:04:10.798Z,63.30
2019-03-23T23:06:40.837Z,67.20
2019-03-23T23:09:11.534Z,67.67
2019-03-23T23:11:41.568Z,59.23
2019-03-23T23:14:11.501Z,60.23
2019-03-23T23:16:41.459Z,68.10
2019-03-23T23:19:11.416Z,74.17
2019-03-23T23:21:41.657Z,71.37
2019-03-23T23:24:11.782Z,92.60
2019-03-23T23:26:42.020Z,87.70
2019-03-23T23:29:12.042Z,84.07
2019-03-23T23:31:42.305Z,91.20
2019-03-23T23:34:12.451Z,90.80
2019-03-23T23:36:42.676Z,90.30
2019-03-23T23:39:12.934Z,98.03
2019-03-23T23:41:42.977Z,94.17
2019-03-23T23:44:13.157Z,96.27
2019-03-23T23:46:43.164Z,97.87
2019-03-23T23:49:13.480Z,89.53
2019-03-23T23:51:50.043Z,96.60
2019-03-23T23:54:15.450Z,83.67
2019-03-23T23:56:45.685Z,102.00
2019-03-23T23:59:16.107Z,107.93
